sensor_id;sensor_type;location;lat;lon;timestamp;P1;durP1;ratioP1;P2;durP2;ratioP2
28587;SDS011;15787;49.662;10.162;2022-09-27T07:55:36;0.10;;;0.10;;
28587;SDS011;15787;49.662;10.162;2022-09-27T07:58:16;0.00;;;0.00;;
28587;SDS011;15787;49.662;10.162;2022-09-27T08:00:53;0.10;;;0.10;;
28587;SDS011;15787;49.662;10.162;2022-09-27T08:21:42;0.10;;;0.10;;
28587;SDS011;15787;49.662;10.162;2022-09-27T08:30:58;0.10;;;0.10;;
28587;SDS011;15787;49.662;10.162;2022-09-27T08:33:30;0.10;;;0.10;;
28587;SDS011;15787;49.662;10.162;2022-09-27T08:36:09;0.00;;;0.00;;
28587;SDS011;15787;49.662;10.162;2022-09-27T08:38:46;0.00;;;0.00;;
28587;SDS011;15787;49.662;10.162;2022-09-27T08:44:18;0.00;;;0.00;;
28587;SDS011;15787;49.662;10.162;2022-09-27T08:47:13;0.00;;;0.00;;
28587;SDS011;15787;49.662;10.162;2022-09-27T08:49:46;0.08;;;0.08;;
28587;SDS011;15787;49.662;10.162;2022-09-27T08:52:19;0.00;;;0.00;;
28587;SDS011;15787;49.662;10.162;2022-09-27T08:54:55;0.00;;;0.00;;
28587;SDS011;15787;49.662;10.162;2022-09-27T08:57:25;0.00;;;0.00;;
28587;SDS011;15787;49.662;10.162;2022-09-27T08:59:54;0.03;;;0.03;;
28587;SDS011;15787;49.662;10.162;2022-09-27T09:02:28;0.00;;;0.00;;
28587;SDS011;15787;49.662;10.162;2022-09-27T09:04:57;0.00;;;0.00;;
28587;SDS011;15787;49.662;10.162;2022-09-27T09:07:33;0.08;;;0.08;;
28587;SDS011;15787;49.662;10.162;2022-09-27T09:10:20;0.00;;;0.00;;
28587;SDS011;15787;49.662;10.162;2022-09-27T09:13:17;0.10;;;0.10;;
28587;SDS011;15787;49.662;10.162;2022-09-27T09:16:02;0.00;;;0.00;;
28587;SDS011;15787;49.662;10.162;2022-09-27T09:18:46;0.00;;;0.00;;
28587;SDS011;15787;49.662;10.162;2022-09-27T09:21:37;0.08;;;0.08;;
28587;SDS011;15787;49.662;10.162;2022-09-27T09:24:16;0.00;;;0.00;;
28587;SDS011;15787;49.662;10.162;2022-09-27T09:26:56;0.10;;;0.10;;
28587;SDS011;15787;49.662;10.162;2022-09-27T09:29:36;0.00;;;0.00;;
28587;SDS011;15787;49.662;10.162;2022-09-27T09:32:21;0.00;;;0.00;;
28587;SDS011;15787;49.662;10.162;2022-09-27T09:37:33;0.00;;;0.00;;
28587;SDS011;15787;49.662;10.162;2022-09-27T09:40:06;0.75;;;0.75;;
28587;SDS011;15787;49.662;10.162;2022-09-27T09:42:47;0.10;;;0.10;;
28587;SDS011;15787;49.662;10.162;2022-09-27T09:45:21;0.00;;;0.00;;
28587;SDS011;15787;49.662;10.162;2022-09-27T09:47:56;0.00;;;0.00;;
28587;SDS011;15787;49.662;10.162;2022-09-27T09:50:30;0.00;;;0.00;;
28587;SDS011;15787;49.662;10.162;2022-09-27T09:53:09;0.10;;;0.10;;
28587;SDS011;15787;49.662;10.162;2022-09-27T09:55:42;0.00;;;0.00;;
28587;SDS011;15787;49.662;10.162;2022-09-27T09:58:19;0.00;;;0.00;;
28587;SDS011;15787;49.662;10.162;2022-09-27T10:00:56;0.10;;;0.10;;
28587;SDS011;15787;49.662;10.162;2022-09-27T10:03:31;0.00;;;0.00;;
28587;SDS011;15787;49.662;10.162;2022-09-27T10:05:59;0.00;;;0.00;;
28587;SDS011;15787;49.662;10.162;2022-09-27T10:08:28;1.77;;;0.52;;
28587;SDS011;15787;49.662;10.162;2022-09-27T10:11:16;0.80;;;0.50;;
28587;SDS011;15787;49.662;10.162;2022-09-27T10:13:57;2.03;;;0.55;;
28587;SDS011;15787;49.662;10.162;2022-09-27T10:16:25;1.27;;;0.70;;
28587;SDS011;15787;49.662;10.162;2022-09-27T10:18:56;1.67;;;0.60;;
28587;SDS011;15787;49.662;10.162;2022-09-27T10:21:29;0.95;;;0.57;;
28587;SDS011;15787;49.662;10.162;2022-09-27T10:24:05;1.92;;;0.80;;
28587;SDS011;15787;49.662;10.162;2022-09-27T10:27:00;1.00;;;0.60;;
28587;SDS011;15787;49.662;10.162;2022-09-27T10:29:33;1.73;;;0.60;;
28587;SDS011;15787;49.662;10.162;2022-09-27T10:34:49;1.00;;;0.57;;
28587;SDS011;15787;49.662;10.162;2022-09-27T10:37:19;0.77;;;0.52;;
28587;SDS011;15787;49.662;10.162;2022-09-27T10:40:14;0.75;;;0.50;;
28587;SDS011;15787;49.662;10.162;2022-09-27T10:42:52;0.50;;;0.38;;
28587;SDS011;15787;49.662;10.162;2022-09-27T10:45:27;2.70;;;0.70;;
28587;SDS011;15787;49.662;10.162;2022-09-27T10:48:04;0.75;;;0.35;;
28587;SDS011;15787;49.662;10.162;2022-09-27T10:50:40;1.50;;;0.40;;
28587;SDS011;15787;49.662;10.162;2022-09-27T10:53:34;0.82;;;0.40;;
28587;SDS011;15787;49.662;10.162;2022-09-27T10:56:12;5.20;;;0.70;;
28587;SDS011;15787;49.662;10.162;2022-09-27T10:58:48;0.45;;;0.43;;
28587;SDS011;15787;49.662;10.162;2022-09-27T11:01:20;3.55;;;0.60;;
28587;SDS011;15787;49.662;10.162;2022-09-27T11:04:14;1.23;;;0.45;;
28587;SDS011;15787;49.662;10.162;2022-09-27T11:06:46;2.22;;;0.90;;
28587;SDS011;15787;49.662;10.162;2022-09-27T11:09:16;0.57;;;0.47;;
28587;SDS011;15787;49.662;10.162;2022-09-27T11:11:51;0.68;;;0.40;;
28587;SDS011;15787;49.662;10.162;2022-09-27T11:14:33;0.57;;;0.40;;
28587;SDS011;15787;49.662;10.162;2022-09-27T11:17:09;0.95;;;0.50;;
28587;SDS011;15787;49.662;10.162;2022-09-27T11:20:01;1.13;;;0.60;;
28587;SDS011;15787;49.662;10.162;2022-09-27T11:22:57;0.47;;;0.40;;
28587;SDS011;15787;49.662;10.162;2022-09-27T11:25:48;2.03;;;0.50;;
28587;SDS011;15787;49.662;10.162;2022-09-27T11:28:32;1.15;;;0.50;;
28587;SDS011;15787;49.662;10.162;2022-09-27T11:31:18;1.50;;;0.50;;
28587;SDS011;15787;49.662;10.162;2022-09-27T11:37:02;0.90;;;0.50;;
28587;SDS011;15787;49.662;10.162;2022-09-27T11:39:42;1.42;;;0.50;;
28587;SDS011;15787;49.662;10.162;2022-09-27T11:42:29;0.68;;;0.40;;
28587;SDS011;15787;49.662;10.162;2022-09-27T11:45:19;1.02;;;0.57;;
28587;SDS011;15787;49.662;10.162;2022-09-27T11:48:20;1.80;;;0.70;;
28587;SDS011;15787;49.662;10.162;2022-09-27T11:51:06;1.48;;;0.50;;
28587;SDS011;15787;49.662;10.162;2022-09-27T11:53:49;1.45;;;0.65;;
28587;SDS011;15787;49.662;10.162;2022-09-27T11:56:31;1.92;;;0.65;;
28587;SDS011;15787;49.662;10.162;2022-09-27T11:59:15;1.55;;;0.60;;
28587;SDS011;15787;49.662;10.162;2022-09-27T12:02:02;0.70;;;0.50;;
28587;SDS011;15787;49.662;10.162;2022-09-27T12:04:50;0.80;;;0.57;;
28587;SDS011;15787;49.662;10.162;2022-09-27T12:07:32;1.88;;;0.60;;
28587;SDS011;15787;49.662;10.162;2022-09-27T12:10:09;1.00;;;0.67;;
28587;SDS011;15787;49.662;10.162;2022-09-27T12:12:43;1.10;;;0.63;;
28587;SDS011;15787;49.662;10.162;2022-09-27T12:15:18;1.02;;;0.55;;
28587;SDS011;15787;49.662;10.162;2022-09-27T12:17:48;1.55;;;0.82;;
28587;SDS011;15787;49.662;10.162;2022-09-27T12:20:19;1.63;;;0.60;;
28587;SDS011;15787;49.662;10.162;2022-09-27T12:22:53;2.22;;;0.88;;
28587;SDS011;15787;49.662;10.162;2022-09-27T12:25:51;2.17;;;0.90;;
28587;SDS011;15787;49.662;10.162;2022-09-27T12:28:30;1.77;;;1.00;;
28587;SDS011;15787;49.662;10.162;2022-09-27T12:31:09;3.58;;;1.02;;
28587;SDS011;15787;49.662;10.162;2022-09-27T12:34:01;1.70;;;0.80;;
28587;SDS011;15787;49.662;10.162;2022-09-27T12:36:42;3.30;;;0.70;;
28587;SDS011;15787;49.662;10.162;2022-09-27T12:39:16;0.47;;;0.40;;
28587;SDS011;15787;49.662;10.162;2022-09-27T12:41:56;1.92;;;0.70;;
28587;SDS011;15787;49.662;10.162;2022-09-27T12:44:38;0.57;;;0.57;;
28587;SDS011;15787;49.662;10.162;2022-09-27T12:47:17;3.50;;;0.88;;
28587;SDS011;15787;49.662;10.162;2022-09-27T12:49:56;1.58;;;0.70;;
28587;SDS011;15787;49.662;10.162;2022-09-27T12:52:30;2.92;;;0.60;;
28587;SDS011;15787;49.662;10.162;2022-09-27T12:55:08;1.38;;;0.60;;
28587;SDS011;15787;49.662;10.162;2022-09-27T12:58:09;0.90;;;0.70;;
28587;SDS011;15787;49.662;10.162;2022-09-27T13:00:50;4.63;;;0.70;;
28587;SDS011;15787;49.662;10.162;2022-09-27T13:03:26;1.80;;;1.00;;
28587;SDS011;15787;49.662;10.162;2022-09-27T13:12:17;0.80;;;0.50;;
28587;SDS011;15787;49.662;10.162;2022-09-27T13:14:53;2.80;;;0.52;;
28587;SDS011;15787;49.662;10.162;2022-09-27T13:20:40;1.98;;;0.80;;
28587;SDS011;15787;49.662;10.162;2022-09-27T13:26:47;0.82;;;0.50;;
28587;SDS011;15787;49.662;10.162;2022-09-27T13:29:28;1.70;;;0.45;;
28587;SDS011;15787;49.662;10.162;2022-09-27T13:32:13;1.75;;;0.55;;
28587;SDS011;15787;49.662;10.162;2022-09-27T13:35:16;3.42;;;1.17;;
28587;SDS011;15787;49.662;10.162;2022-09-27T13:37:51;0.95;;;0.45;;
28587;SDS011;15787;49.662;10.162;2022-09-27T13:40:34;1.52;;;0.60;;
28587;SDS011;15787;49.662;10.162;2022-09-27T13:43:18;1.52;;;0.55;;
28587;SDS011;15787;49.662;10.162;2022-09-27T13:46:03;1.08;;;0.50;;
28587;SDS011;15787;49.662;10.162;2022-09-27T13:48:44;1.70;;;0.50;;
28587;SDS011;15787;49.662;10.162;2022-09-27T13:51:22;1.02;;;0.50;;
28587;SDS011;15787;49.662;10.162;2022-09-27T13:53:58;3.22;;;0.50;;
28587;SDS011;15787;49.662;10.162;2022-09-27T13:56:52;1.80;;;0.40;;
28587;SDS011;15787;49.662;10.162;2022-09-27T13:59:23;2.90;;;0.90;;
28587;SDS011;15787;49.662;10.162;2022-09-27T14:02:19;0.98;;;0.70;;
28587;SDS011;15787;49.662;10.162;2022-09-27T14:04:52;3.50;;;0.70;;
28587;SDS011;15787;49.662;10.162;2022-09-27T14:07:23;2.50;;;0.75;;
28587;SDS011;15787;49.662;10.162;2022-09-27T14:10:00;0.80;;;0.50;;
28587;SDS011;15787;49.662;10.162;2022-09-27T14:12:37;2.65;;;0.60;;
28587;SDS011;15787;49.662;10.162;2022-09-27T14:15:15;2.05;;;0.73;;
28587;SDS011;15787;49.662;10.162;2022-09-27T14:17:47;4.22;;;1.10;;
28587;SDS011;15787;49.662;10.162;2022-09-27T14:23:01;2.70;;;0.98;;
28587;SDS011;15787;49.662;10.162;2022-09-27T14:25:37;2.33;;;1.10;;
28587;SDS011;15787;49.662;10.162;2022-09-27T14:28:22;4.35;;;1.48;;
28587;SDS011;15787;49.662;10.162;2022-09-27T14:31:12;3.08;;;0.90;;
28587;SDS011;15787;49.662;10.162;2022-09-27T14:34:05;2.50;;;0.80;;
28587;SDS011;15787;49.662;10.162;2022-09-27T14:36:37;1.38;;;0.63;;
28587;SDS011;15787;49.662;10.162;2022-09-27T14:39:27;1.88;;;1.08;;
28587;SDS011;15787;49.662;10.162;2022-09-27T14:42:01;2.38;;;0.68;;
28587;SDS011;15787;49.662;10.162;2022-09-27T14:44:31;2.35;;;0.90;;
28587;SDS011;15787;49.662;10.162;2022-09-27T14:47:07;2.97;;;1.02;;
28587;SDS011;15787;49.662;10.162;2022-09-27T14:49:46;2.55;;;1.08;;
28587;SDS011;15787;49.662;10.162;2022-09-27T14:52:16;2.08;;;0.80;;
28587;SDS011;15787;49.662;10.162;2022-09-27T15:03:55;1.80;;;0.60;;
28587;SDS011;15787;49.662;10.162;2022-09-27T15:06:31;4.07;;;0.70;;
28587;SDS011;15787;49.662;10.162;2022-09-27T15:08:59;1.00;;;0.70;;
28587;SDS011;15787;49.662;10.162;2022-09-27T15:11:27;1.02;;;0.55;;
28587;SDS011;15787;49.662;10.162;2022-09-27T15:13:58;1.27;;;0.70;;
28587;SDS011;15787;49.662;10.162;2022-09-27T15:16:30;1.60;;;0.60;;
28587;SDS011;15787;49.662;10.162;2022-09-27T15:18:59;1.80;;;0.60;;
28587;SDS011;15787;49.662;10.162;2022-09-27T15:21:31;1.38;;;0.70;;
28587;SDS011;15787;49.662;10.162;2022-09-27T15:24:00;1.52;;;0.47;;
28587;SDS011;15787;49.662;10.162;2022-09-27T15:26:33;4.10;;;0.60;;
28587;SDS011;15787;49.662;10.162;2022-09-27T15:29:03;1.10;;;0.70;;
28587;SDS011;15787;49.662;10.162;2022-09-27T15:31:32;0.73;;;0.50;;
28587;SDS011;15787;49.662;10.162;2022-09-27T15:34:02;1.50;;;0.70;;
28587;SDS011;15787;49.662;10.162;2022-09-27T15:39:27;2.63;;;0.70;;
28587;SDS011;15787;49.662;10.162;2022-09-27T15:42:02;3.92;;;0.60;;
28587;SDS011;15787;49.662;10.162;2022-09-27T15:44:36;1.75;;;0.70;;
28587;SDS011;15787;49.662;10.162;2022-09-27T15:50:30;1.25;;;0.70;;
28587;SDS011;15787;49.662;10.162;2022-09-27T15:53:01;2.83;;;0.50;;
28587;SDS011;15787;49.662;10.162;2022-09-27T15:55:33;1.00;;;0.50;;
28587;SDS011;15787;49.662;10.162;2022-09-27T15:58:06;3.00;;;0.60;;
28587;SDS011;15787;49.662;10.162;2022-09-27T16:00:49;3.85;;;0.90;;
28587;SDS011;15787;49.662;10.162;2022-09-27T16:03:18;3.72;;;1.17;;
28587;SDS011;15787;49.662;10.162;2022-09-27T16:05:46;1.52;;;0.55;;
28587;SDS011;15787;49.662;10.162;2022-09-27T16:08:15;2.90;;;0.95;;
28587;SDS011;15787;49.662;10.162;2022-09-27T16:10:45;1.92;;;0.80;;
28587;SDS011;15787;49.662;10.162;2022-09-27T16:13:16;5.10;;;0.90;;
28587;SDS011;15787;49.662;10.162;2022-09-27T16:15:44;2.15;;;0.88;;
28587;SDS011;15787;49.662;10.162;2022-09-27T16:18:14;2.50;;;1.00;;
28587;SDS011;15787;49.662;10.162;2022-09-27T16:20:42;4.07;;;1.05;;
28587;SDS011;15787;49.662;10.162;2022-09-27T16:23:10;1.10;;;0.70;;
28587;SDS011;15787;49.662;10.162;2022-09-27T16:25:39;2.20;;;0.90;;
28587;SDS011;15787;49.662;10.162;2022-09-27T16:28:09;1.95;;;1.10;;
28587;SDS011;15787;49.662;10.162;2022-09-27T16:30:37;1.80;;;0.80;;
28587;SDS011;15787;49.662;10.162;2022-09-27T16:33:05;3.20;;;1.40;;
28587;SDS011;15787;49.662;10.162;2022-09-27T16:35:32;2.67;;;2.00;;
28587;SDS011;15787;49.662;10.162;2022-09-27T16:38:00;2.50;;;0.93;;
28587;SDS011;15787;49.662;10.162;2022-09-27T16:40:28;2.83;;;0.93;;
28587;SDS011;15787;49.662;10.162;2022-09-27T16:42:58;1.95;;;1.00;;
28587;SDS011;15787;49.662;10.162;2022-09-27T16:45:26;2.40;;;0.40;;
28587;SDS011;15787;49.662;10.162;2022-09-27T16:47:59;1.40;;;0.50;;
28587;SDS011;15787;49.662;10.162;2022-09-27T16:50:27;0.57;;;0.32;;
28587;SDS011;15787;49.662;10.162;2022-09-27T16:53:13;1.80;;;0.57;;
28587;SDS011;15787;49.662;10.162;2022-09-27T16:55:41;1.05;;;0.47;;
28587;SDS011;15787;49.662;10.162;2022-09-27T16:58:10;1.20;;;0.60;;
28587;SDS011;15787;49.662;10.162;2022-09-27T17:00:38;0.75;;;0.60;;
28587;SDS011;15787;49.662;10.162;2022-09-27T17:03:07;1.23;;;0.35;;
28587;SDS011;15787;49.662;10.162;2022-09-27T17:05:35;0.80;;;0.40;;
28587;SDS011;15787;49.662;10.162;2022-09-27T17:08:03;1.90;;;0.80;;
28587;SDS011;15787;49.662;10.162;2022-09-27T17:10:31;0.95;;;0.50;;
28587;SDS011;15787;49.662;10.162;2022-09-27T17:13:01;5.07;;;1.80;;
28587;SDS011;15787;49.662;10.162;2022-09-27T17:15:30;1.08;;;0.50;;
28587;SDS011;15787;49.662;10.162;2022-09-27T17:17:58;0.22;;;0.22;;
28587;SDS011;15787;49.662;10.162;2022-09-27T17:20:26;0.90;;;0.43;;
28587;SDS011;15787;49.662;10.162;2022-09-27T17:22:53;1.33;;;0.45;;
28587;SDS011;15787;49.662;10.162;2022-09-27T17:25:22;0.50;;;0.35;;
28587;SDS011;15787;49.662;10.162;2022-09-27T17:27:50;2.65;;;0.88;;
28587;SDS011;15787;49.662;10.162;2022-09-27T17:30:18;0.77;;;0.30;;
28587;SDS011;15787;49.662;10.162;2022-09-27T17:32:47;1.77;;;0.70;;
28587;SDS011;15787;49.662;10.162;2022-09-27T17:35:15;2.88;;;0.63;;
28587;SDS011;15787;49.662;10.162;2022-09-27T17:37:43;1.23;;;0.60;;
28587;SDS011;15787;49.662;10.162;2022-09-27T17:40:11;0.95;;;0.50;;
28587;SDS011;15787;49.662;10.162;2022-09-27T17:42:39;1.60;;;0.80;;
28587;SDS011;15787;49.662;10.162;2022-09-27T17:45:08;2.40;;;0.60;;
28587;SDS011;15787;49.662;10.162;2022-09-27T17:47:36;2.00;;;0.70;;
28587;SDS011;15787;49.662;10.162;2022-09-27T17:50:23;1.52;;;0.52;;
28587;SDS011;15787;49.662;10.162;2022-09-27T17:52:50;3.33;;;1.50;;
28587;SDS011;15787;49.662;10.162;2022-09-27T17:55:19;4.95;;;2.03;;
28587;SDS011;15787;49.662;10.162;2022-09-27T17:57:48;1.77;;;0.90;;
28587;SDS011;15787;49.662;10.162;2022-09-27T18:00:17;2.40;;;1.08;;
28587;SDS011;15787;49.662;10.162;2022-09-27T18:02:46;1.95;;;0.90;;
28587;SDS011;15787;49.662;10.162;2022-09-27T18:05:14;2.88;;;1.25;;
28587;SDS011;15787;49.662;10.162;2022-09-27T18:07:45;2.20;;;1.40;;
28587;SDS011;15787;49.662;10.162;2022-09-27T18:10:13;0.90;;;0.60;;
28587;SDS011;15787;49.662;10.162;2022-09-27T18:12:42;3.42;;;0.75;;
28587;SDS011;15787;49.662;10.162;2022-09-27T18:15:09;3.00;;;0.73;;
28587;SDS011;15787;49.662;10.162;2022-09-27T18:17:38;1.58;;;0.90;;
28587;SDS011;15787;49.662;10.162;2022-09-27T18:20:06;1.77;;;0.70;;
28587;SDS011;15787;49.662;10.162;2022-09-27T18:37:36;2.25;;;0.75;;
28587;SDS011;15787;49.662;10.162;2022-09-27T19:59:30;0.03;;;0.03;;
28587;SDS011;15787;49.662;10.162;2022-09-27T20:02:00;0.10;;;0.10;;
28587;SDS011;15787;49.662;10.162;2022-09-27T20:10:55;0.10;;;0.10;;
28587;SDS011;15787;49.662;10.162;2022-09-27T20:13:42;0.00;;;0.00;;
28587;SDS011;15787;49.662;10.162;2022-09-27T20:18:59;0.00;;;0.00;;
28587;SDS011;15787;49.662;10.162;2022-09-27T20:24:40;0.10;;;0.10;;
28587;SDS011;15787;49.662;10.162;2022-09-27T20:27:08;0.00;;;0.00;;
28587;SDS011;15787;49.662;10.162;2022-09-27T20:29:38;0.10;;;0.10;;
28587;SDS011;15787;49.662;10.162;2022-09-27T20:32:06;0.10;;;0.10;;
28587;SDS011;15787;49.662;10.162;2022-09-27T20:38:08;0.10;;;0.10;;
28587;SDS011;15787;49.662;10.162;2022-09-27T20:43:23;0.00;;;0.00;;
28587;SDS011;15787;49.662;10.162;2022-09-27T20:46:16;1.95;;;1.85;;
28587;SDS011;15787;49.662;10.162;2022-09-27T20:48:49;0.10;;;0.10;;
28587;SDS011;15787;49.662;10.162;2022-09-27T20:51:18;0.00;;;0.00;;
28587;SDS011;15787;49.662;10.162;2022-09-27T20:54:00;0.10;;;0.10;;
28587;SDS011;15787;49.662;10.162;2022-09-27T20:56:29;0.00;;;0.00;;
28587;SDS011;15787;49.662;10.162;2022-09-27T21:01:59;0.00;;;0.00;;
28587;SDS011;15787;49.662;10.162;2022-09-27T21:04:27;0.10;;;0.10;;
28587;SDS011;15787;49.662;10.162;2022-09-27T21:10:10;0.05;;;0.05;;
28587;SDS011;15787;49.662;10.162;2022-09-27T21:15:41;0.00;;;0.00;;
28587;SDS011;15787;49.662;10.162;2022-09-27T21:18:10;0.00;;;0.00;;
28587;SDS011;15787;49.662;10.162;2022-09-27T21:20:41;0.10;;;0.10;;
28587;SDS011;15787;49.662;10.162;2022-09-27T21:23:10;0.10;;;0.10;;
28587;SDS011;15787;49.662;10.162;2022-09-27T21:25:39;0.00;;;0.00;;
28587;SDS011;15787;49.662;10.162;2022-09-27T21:28:08;0.05;;;0.05;;
28587;SDS011;15787;49.662;10.162;2022-09-27T21:30:36;0.10;;;0.10;;
28587;SDS011;15787;49.662;10.162;2022-09-27T21:33:04;0.10;;;0.10;;
28587;SDS011;15787;49.662;10.162;2022-09-27T21:38:34;0.08;;;0.08;;
28587;SDS011;15787;49.662;10.162;2022-09-27T21:44:03;0.10;;;0.10;;
28587;SDS011;15787;49.662;10.162;2022-09-27T21:46:31;0.50;;;0.50;;
28587;SDS011;15787;49.662;10.162;2022-09-27T21:49:00;0.05;;;0.05;;
28587;SDS011;15787;49.662;10.162;2022-09-27T21:51:31;0.05;;;0.05;;
28587;SDS011;15787;49.662;10.162;2022-09-27T21:54:02;0.00;;;0.00;;
28587;SDS011;15787;49.662;10.162;2022-09-27T21:56:32;0.10;;;0.10;;
28587;SDS011;15787;49.662;10.162;2022-09-27T22:02:06;0.10;;;0.10;;
28587;SDS011;15787;49.662;10.162;2022-09-27T22:10:41;0.00;;;0.00;;
28587;SDS011;15787;49.662;10.162;2022-09-27T22:13:09;0.10;;;0.10;;
28587;SDS011;15787;49.662;10.162;2022-09-27T22:18:13;0.08;;;0.08;;
28587;SDS011;15787;49.662;10.162;2022-09-27T22:20:41;0.00;;;0.00;;
28587;SDS011;15787;49.662;10.162;2022-09-27T22:23:09;0.00;;;0.00;;
28587;SDS011;15787;49.662;10.162;2022-09-27T22:25:37;0.10;;;0.10;;
28587;SDS011;15787;49.662;10.162;2022-09-27T22:28:05;0.00;;;0.00;;
28587;SDS011;15787;49.662;10.162;2022-09-27T22:33:17;0.10;;;0.10;;
28587;SDS011;15787;49.662;10.162;2022-09-27T22:35:45;0.00;;;0.00;;
28587;SDS011;15787;49.662;10.162;2022-09-27T22:41:14;0.10;;;0.10;;
28587;SDS011;15787;49.662;10.162;2022-09-27T22:43:43;0.10;;;0.10;;
28587;SDS011;15787;49.662;10.162;2022-09-27T22:46:23;0.10;;;0.10;;
28587;SDS011;15787;49.662;10.162;2022-09-27T22:48:53;0.20;;;0.20;;
28587;SDS011;15787;49.662;10.162;2022-09-27T22:51:21;0.00;;;0.00;;
28587;SDS011;15787;49.662;10.162;2022-09-27T22:53:49;0.00;;;0.00;;
28587;SDS011;15787;49.662;10.162;2022-09-27T22:59:30;0.10;;;0.10;;
28587;SDS011;15787;49.662;10.162;2022-09-27T23:01:58;0.10;;;0.10;;
28587;SDS011;15787;49.662;10.162;2022-09-27T23:04:27;0.10;;;0.10;;
28587;SDS011;15787;49.662;10.162;2022-09-27T23:06:55;0.00;;;0.00;;
28587;SDS011;15787;49.662;10.162;2022-09-27T23:09:23;0.10;;;0.10;;
28587;SDS011;15787;49.662;10.162;2022-09-27T23:11:52;0.30;;;0.30;;
28587;SDS011;15787;49.662;10.162;2022-09-27T23:14:21;0.00;;;0.00;;
28587;SDS011;15787;49.662;10.162;2022-09-27T23:16:49;0.00;;;0.00;;
28587;SDS011;15787;49.662;10.162;2022-09-27T23:22:20;0.90;;;0.90;;
28587;SDS011;15787;49.662;10.162;2022-09-27T23:30:37;0.10;;;0.10;;
28587;SDS011;15787;49.662;10.162;2022-09-27T23:33:05;0.00;;;0.00;;
28587;SDS011;15787;49.662;10.162;2022-09-27T23:35:34;0.20;;;0.20;;
28587;SDS011;15787;49.662;10.162;2022-09-27T23:38:05;0.10;;;0.10;;
28587;SDS011;15787;49.662;10.162;2022-09-27T23:40:33;0.10;;;0.10;;
28587;SDS011;15787;49.662;10.162;2022-09-27T23:43:02;0.05;;;0.05;;
28587;SDS011;15787;49.662;10.162;2022-09-27T23:45:30;0.08;;;0.08;;
28587;SDS011;15787;49.662;10.162;2022-09-27T23:47:58;0.10;;;0.10;;
28587;SDS011;15787;49.662;10.162;2022-09-27T23:50:28;0.10;;;0.10;;
28587;SDS011;15787;49.662;10.162;2022-09-27T23:52:58;0.10;;;0.10;;
28587;SDS011;15787;49.662;10.162;2022-09-27T23:55:27;0.05;;;0.05;;
28587;SDS011;15787;49.662;10.162;2022-09-27T23:57:55;0.10;;;0.10;;
